WetterOnline ( https://www.wetteronline.de )

Wetter aktuell Lübbenau

Aktuelles Wetter: Baruth (55m)

6-stündlich | Neueste Meldungen
Ortszeit Temperatur Wetter
Mi, 22.05. 20:00 16.3° C bedeckt
Mi, 22.05. 14:00 23.8° C bewölkt
Mi, 22.05. 8:00 20.3° C bedeckt
Mi, 22.05. 2:00 18.1° C bedeckt
Di, 21.05. 20:00 24.1° C bewölkt
Di, 21.05. 14:00 26.1° C bewölkt
Di, 21.05. 8:00 16.1° C fast wolkenlos
Di, 21.05. 2:00 10.3° C wolkenlos
Ortszeit Temperatur Wetter
Mi, 22.05. 22:00 15.8° C bedeckt
Mi, 22.05. 21:50 15.8° C bedeckt
Mi, 22.05. 21:40 15.8° C bedeckt
Mi, 22.05. 21:30 15.8° C bedeckt
Mi, 22.05. 21:20 15.8° C bedeckt
Mi, 22.05. 21:10 15.9° C bedeckt
Mi, 22.05. 21:00 15.9° C bedeckt
Mi, 22.05. 20:30 16.1° C bedeckt
Mi, 22.05. 20:00 16.3° C bedeckt
Mi, 22.05. 19:30 16.5° C bedeckt
Mi, 22.05. 19:00 17.2° C bedeckt
Ortszeit Relative Feuchte Sichtweite
Mi, 22.05. 20:00 80% 65 km
Mi, 22.05. 14:00 56% 45 km
Mi, 22.05. 8:00 66% 45 km
Mi, 22.05. 2:00 79% 35 km
Di, 21.05. 20:00 44% 50 km
Di, 21.05. 14:00 41% 45 km
Di, 21.05. 8:00 80% 23 km
Di, 21.05. 2:00 94% 11 km
Ortszeit Relative Feuchte Sichtweite
Mi, 22.05. 22:00 81% 50 km
Mi, 22.05. 21:50 81% -
Mi, 22.05. 21:40 80% -
Mi, 22.05. 21:30 80% 45 km
Mi, 22.05. 21:20 80% -
Mi, 22.05. 21:10 80% -
Mi, 22.05. 21:00 79% 55 km
Mi, 22.05. 20:30 79% >70 km
Mi, 22.05. 20:00 80% 65 km
Mi, 22.05. 19:30 81% 65 km
Mi, 22.05. 19:00 80% 55 km
Ortszeit Niederschlagsmenge Niederschlagsart
Mi, 22.05. 20:00 0.1 l/m2 in 12 Std. -
Mi, 22.05. 14:00 0.1 l/m2 in 6 Std. Regen
Mi, 22.05. 8:00 0.4 l/m2 in 12 Std. -
Mi, 22.05. 2:00 0.4 l/m2 in 6 Std. Regen
Di, 21.05. 20:00 0.0 l/m2 in 12 Std. -
Di, 21.05. 14:00 0.0 l/m2 in 6 Std. -
Di, 21.05. 8:00 0.0 l/m2 in 12 Std. -
Di, 21.05. 2:00 0.0 l/m2 in 6 Std. -
Ortszeit Niederschlagsmenge Niederschlagsart
Mi, 22.05. 22:00 0.0 l/m2 in 1 Std. -
Mi, 22.05. 21:50 keine Meldung -
Mi, 22.05. 21:40 keine Meldung -
Mi, 22.05. 21:30 0.0 l/m2 in 30 Min -
Mi, 22.05. 21:20 keine Meldung -
Mi, 22.05. 21:10 keine Meldung -
Mi, 22.05. 21:00 0.0 l/m2 in 1 Std. -
Mi, 22.05. 20:30 0.0 l/m2 in 30 Min -
Mi, 22.05. 20:00 0.0 l/m2 in 1 Std. -
Mi, 22.05. 19:30 0.0 l/m2 in 30 Min -
Mi, 22.05. 19:00 0.0 l/m2 in 1 Std. -
Ortszeit Stärke Spitze Richtung
km/h Bft. km/h Grad Sektor
Mi, 22.05. 20:00 20 4 35 270° W
Mi, 22.05. 14:00 13 3 33 180° S
Mi, 22.05. 8:00 11 2 22 120° SO
Mi, 22.05. 2:00 6 1 24 210° SW
Di, 21.05. 20:00 6 1 43 90° O
Di, 21.05. 14:00 14 3 36 90° O
Di, 21.05. 8:00 11 2 18 80° O
Di, 21.05. 2:00 6 1 20 100° O
Ortszeit Stärke Spitze Richtung
km/h Bft. km/h Grad Sektor
Mi, 22.05. 22:00 19 3 28 270° W
Mi, 22.05. 21:50 19 3 - 270° W
Mi, 22.05. 21:40 14 3 - 270° W
Mi, 22.05. 21:30 18 3 29 260° W
Mi, 22.05. 21:20 18 3 - 260° W
Mi, 22.05. 21:10 18 3 - 270° W
Mi, 22.05. 21:00 14 3 29 270° W
Mi, 22.05. 20:30 20 4 30 270° W
Mi, 22.05. 20:00 20 4 33 270° W
Mi, 22.05. 19:30 22 4 32 270° W
Mi, 22.05. 19:00 17 3 31 260° W
Ortszeit Untergrenze Bedeckung Gattung
total tief tief mittel hoch
Mi, 22.05. 20:00 420 m 8/8 8/8 - - -
Mi, 22.05. 14:00 1500 m 8/8 7/8 - - -
Mi, 22.05. 8:00 3300 m 8/8 8/8 - - -
Mi, 22.05. 2:00 1800 m 8/8 8/8 - - -
Di, 21.05. 20:00 2700 m 8/8 7/8 - - -
Di, 21.05. 14:00 1800 m 7/8 7/8 - - -
Di, 21.05. 8:00 9000 m 2/8 0/8 - - -
Di, 21.05. 2:00 - 0/8 0/8 - - -
Ortszeit Bedeckungsgrad in Achtel und Wolkenuntergrenze
Mi, 22.05. 22:00 8(600m)
Mi, 22.05. 21:50 8(600m)
Mi, 22.05. 21:40 8
Mi, 22.05. 21:30 8(510m)
Mi, 22.05. 21:20 8(510m)
Mi, 22.05. 21:10 8
Mi, 22.05. 21:00 8(510m)
Mi, 22.05. 20:30 8(480m)
Mi, 22.05. 20:00 8(420m)
Mi, 22.05. 19:30 8(420m)
Mi, 22.05. 19:00 8(480m)
Ortszeit Luftdruck NN (hPa) Tendenz (hPa in 3 Std.)
Mi, 22.05. 20:00 1009 + 1,6
Mi, 22.05. 14:00 1006 + 0,1
Mi, 22.05. 8:00 1005 + 0,2
Mi, 22.05. 2:00 1007 - 0,9
Di, 21.05. 20:00 1007 - 0,6
Di, 21.05. 14:00 1009 - 1,7
Di, 21.05. 8:00 1012 0,0
Di, 21.05. 2:00 1013 0,0
Ortszeit Luftdruck NN (hPa) Tendenz (hPa in 3 Std.)
Mi, 22.05. 22:00 1011 + 1,9
Mi, 22.05. 21:50 1011 keine Meldung
Mi, 22.05. 21:40 1010 keine Meldung
Mi, 22.05. 21:30 1010 + 1,8
Mi, 22.05. 21:20 1010 keine Meldung
Mi, 22.05. 21:10 1010 keine Meldung
Mi, 22.05. 21:00 1010 + 1,9
Mi, 22.05. 20:30 1009 + 1,5
Mi, 22.05. 20:00 1009 + 1,6
Mi, 22.05. 19:30 1009 + 1,7
Mi, 22.05. 19:00 1009 + 1,9
Ortszeit Schneehöhe (cm)
Mi, 22.05. 20:00 0
Mi, 22.05. 14:00 0
Mi, 22.05. 8:00 0
Mi, 22.05. 2:00 0
Di, 21.05. 20:00 0
Di, 21.05. 14:00 0
Di, 21.05. 8:00 0
Di, 21.05. 2:00 0
Ortszeit Schneehöhe (cm)
Mi, 22.05. 22:00 0
Mi, 22.05. 21:50 0
Mi, 22.05. 21:40 -
Mi, 22.05. 21:30 0
Mi, 22.05. 21:20 0
Mi, 22.05. 21:10 -
Mi, 22.05. 21:00 0
Mi, 22.05. 20:30 0
Mi, 22.05. 20:00 0
Mi, 22.05. 19:30 0
Mi, 22.05. 19:00 0
Link zu dieser Seite / Seite empfehlen

Das Wetter in ...